sensor_id;sensor_type;location;lat;lon;timestamp;temperature;humidity
28524;DHT22;15734;50.904;6.922;2022-12-07T00:00:26;5.40;99.90
28524;DHT22;15734;50.904;6.922;2022-12-07T00:02:51;5.40;99.90
28524;DHT22;15734;50.904;6.922;2022-12-07T00:05:17;5.40;99.90
28524;DHT22;15734;50.904;6.922;2022-12-07T00:07:42;5.40;99.90
28524;DHT22;15734;50.904;6.922;2022-12-07T00:10:08;5.40;99.90
28524;DHT22;15734;50.904;6.922;2022-12-07T00:12:33;5.40;99.90
28524;DHT22;15734;50.904;6.922;2022-12-07T00:14:59;5.40;99.90
28524;DHT22;15734;50.904;6.922;2022-12-07T00:17:24;5.50;99.90
28524;DHT22;15734;50.904;6.922;2022-12-07T00:19:49;5.50;99.90
28524;DHT22;15734;50.904;6.922;2022-12-07T00:22:15;5.50;99.90
28524;DHT22;15734;50.904;6.922;2022-12-07T00:24:40;5.50;99.90
28524;DHT22;15734;50.904;6.922;2022-12-07T00:27:06;5.50;99.90
28524;DHT22;15734;50.904;6.922;2022-12-07T00:29:31;5.50;99.90
28524;DHT22;15734;50.904;6.922;2022-12-07T00:31:57;5.50;99.90
28524;DHT22;15734;50.904;6.922;2022-12-07T00:34:22;5.50;99.90
28524;DHT22;15734;50.904;6.922;2022-12-07T00:36:48;5.50;99.90
28524;DHT22;15734;50.904;6.922;2022-12-07T00:39:14;5.50;99.90
28524;DHT22;15734;50.904;6.922;2022-12-07T00:41:40;5.50;99.90
28524;DHT22;15734;50.904;6.922;2022-12-07T00:44:05;5.50;99.90
28524;DHT22;15734;50.904;6.922;2022-12-07T00:46:31;5.50;99.90
28524;DHT22;15734;50.904;6.922;2022-12-07T00:48:56;5.50;99.90
28524;DHT22;15734;50.904;6.922;2022-12-07T00:51:23;5.50;99.90
28524;DHT22;15734;50.904;6.922;2022-12-07T00:53:49;5.50;99.90
28524;DHT22;15734;50.904;6.922;2022-12-07T00:56:18;5.50;99.90
28524;DHT22;15734;50.904;6.922;2022-12-07T00:58:48;5.60;99.90
28524;DHT22;15734;50.904;6.922;2022-12-07T01:01:14;5.60;99.90
28524;DHT22;15734;50.904;6.922;2022-12-07T01:03:39;5.50;99.90
28524;DHT22;15734;50.904;6.922;2022-12-07T01:06:05;5.50;99.90
28524;DHT22;15734;50.904;6.922;2022-12-07T01:08:30;5.50;99.90
28524;DHT22;15734;50.904;6.922;2022-12-07T01:11:00;5.60;99.90
28524;DHT22;15734;50.904;6.922;2022-12-07T01:13:25;5.60;99.90
28524;DHT22;15734;50.904;6.922;2022-12-07T01:15:51;5.60;99.90
28524;DHT22;15734;50.904;6.922;2022-12-07T01:18:16;5.60;99.90
28524;DHT22;15734;50.904;6.922;2022-12-07T01:20:42;5.60;99.90
28524;DHT22;15734;50.904;6.922;2022-12-07T01:23:07;5.60;99.90
28524;DHT22;15734;50.904;6.922;2022-12-07T01:25:33;5.60;99.90
28524;DHT22;15734;50.904;6.922;2022-12-07T01:27:58;5.60;99.90
28524;DHT22;15734;50.904;6.922;2022-12-07T01:30:24;5.60;99.90
28524;DHT22;15734;50.904;6.922;2022-12-07T01:32:49;5.60;99.90
28524;DHT22;15734;50.904;6.922;2022-12-07T01:35:15;5.70;99.90
28524;DHT22;15734;50.904;6.922;2022-12-07T01:37:40;5.70;99.90
28524;DHT22;15734;50.904;6.922;2022-12-07T01:40:06;5.70;99.90
28524;DHT22;15734;50.904;6.922;2022-12-07T01:42:32;5.70;99.90
28524;DHT22;15734;50.904;6.922;2022-12-07T01:47:42;5.70;99.90
28524;DHT22;15734;50.904;6.922;2022-12-07T01:50:08;5.70;99.90
28524;DHT22;15734;50.904;6.922;2022-12-07T01:52:34;5.70;99.90
28524;DHT22;15734;50.904;6.922;2022-12-07T01:55:03;5.70;99.90
28524;DHT22;15734;50.904;6.922;2022-12-07T01:57:29;5.70;99.90
28524;DHT22;15734;50.904;6.922;2022-12-07T01:59:56;5.60;99.90
28524;DHT22;15734;50.904;6.922;2022-12-07T02:02:24;5.60;99.90
28524;DHT22;15734;50.904;6.922;2022-12-07T02:04:50;5.70;99.90
28524;DHT22;15734;50.904;6.922;2022-12-07T02:07:16;5.60;99.90
28524;DHT22;15734;50.904;6.922;2022-12-07T02:09:42;5.60;99.90
28524;DHT22;15734;50.904;6.922;2022-12-07T02:12:07;5.60;99.90
28524;DHT22;15734;50.904;6.922;2022-12-07T02:14:33;5.60;99.90
28524;DHT22;15734;50.904;6.922;2022-12-07T02:17:11;5.70;99.90
28524;DHT22;15734;50.904;6.922;2022-12-07T02:27:21;5.60;99.90
28524;DHT22;15734;50.904;6.922;2022-12-07T02:32:23;5.70;99.90
28524;DHT22;15734;50.904;6.922;2022-12-07T02:34:50;5.60;99.90
28524;DHT22;15734;50.904;6.922;2022-12-07T02:40:09;5.60;99.90
28524;DHT22;15734;50.904;6.922;2022-12-07T02:42:38;5.60;99.90
28524;DHT22;15734;50.904;6.922;2022-12-07T02:45:05;5.60;99.90
28524;DHT22;15734;50.904;6.922;2022-12-07T02:47:32;5.60;99.90
28524;DHT22;15734;50.904;6.922;2022-12-07T02:49:58;5.60;99.90
28524;DHT22;15734;50.904;6.922;2022-12-07T02:52:23;5.60;99.90
28524;DHT22;15734;50.904;6.922;2022-12-07T02:54:49;5.60;99.90
28524;DHT22;15734;50.904;6.922;2022-12-07T02:57:19;5.60;99.90
28524;DHT22;15734;50.904;6.922;2022-12-07T02:59:57;5.60;99.90
28524;DHT22;15734;50.904;6.922;2022-12-07T03:12:45;5.60;99.90
28524;DHT22;15734;50.904;6.922;2022-12-07T03:15:21;5.60;99.90
28524;DHT22;15734;50.904;6.922;2022-12-07T03:17:48;5.60;99.90
28524;DHT22;15734;50.904;6.922;2022-12-07T03:20:16;5.60;99.90
28524;DHT22;15734;50.904;6.922;2022-12-07T03:22:42;5.60;99.90
28524;DHT22;15734;50.904;6.922;2022-12-07T03:25:10;5.70;99.90
28524;DHT22;15734;50.904;6.922;2022-12-07T03:27:38;5.70;99.90
28524;DHT22;15734;50.904;6.922;2022-12-07T03:30:10;5.70;99.90
28524;DHT22;15734;50.904;6.922;2022-12-07T03:32:44;5.60;99.90
28524;DHT22;15734;50.904;6.922;2022-12-07T03:37:44;5.70;99.90
28524;DHT22;15734;50.904;6.922;2022-12-07T03:40:19;5.60;99.90
28524;DHT22;15734;50.904;6.922;2022-12-07T03:42:48;5.60;99.90
28524;DHT22;15734;50.904;6.922;2022-12-07T03:45:14;5.60;99.90
28524;DHT22;15734;50.904;6.922;2022-12-07T03:47:46;5.60;99.90
28524;DHT22;15734;50.904;6.922;2022-12-07T03:50:28;5.60;99.90
28524;DHT22;15734;50.904;6.922;2022-12-07T03:53:03;5.60;99.90
28524;DHT22;15734;50.904;6.922;2022-12-07T03:55:30;5.60;99.90
28524;DHT22;15734;50.904;6.922;2022-12-07T03:57:58;5.60;99.90
28524;DHT22;15734;50.904;6.922;2022-12-07T04:00:25;5.60;99.90
28524;DHT22;15734;50.904;6.922;2022-12-07T04:02:51;5.60;99.90
28524;DHT22;15734;50.904;6.922;2022-12-07T04:05:17;5.50;99.90
28524;DHT22;15734;50.904;6.922;2022-12-07T04:07:42;5.50;99.90
28524;DHT22;15734;50.904;6.922;2022-12-07T04:10:08;5.50;99.90
28524;DHT22;15734;50.904;6.922;2022-12-07T04:12:33;5.60;99.90
28524;DHT22;15734;50.904;6.922;2022-12-07T04:14:59;5.50;99.90
28524;DHT22;15734;50.904;6.922;2022-12-07T04:17:24;5.50;99.90
28524;DHT22;15734;50.904;6.922;2022-12-07T04:19:50;5.50;99.90
28524;DHT22;15734;50.904;6.922;2022-12-07T04:22:15;5.50;99.90
28524;DHT22;15734;50.904;6.922;2022-12-07T04:24:41;5.50;99.90
28524;DHT22;15734;50.904;6.922;2022-12-07T04:27:06;5.50;99.90
28524;DHT22;15734;50.904;6.922;2022-12-07T04:29:32;5.50;99.90
28524;DHT22;15734;50.904;6.922;2022-12-07T04:31:57;5.50;99.90
28524;DHT22;15734;50.904;6.922;2022-12-07T04:34:23;5.60;99.90
28524;DHT22;15734;50.904;6.922;2022-12-07T04:36:48;5.50;99.90
28524;DHT22;15734;50.904;6.922;2022-12-07T04:39:30;5.50;99.90
28524;DHT22;15734;50.904;6.922;2022-12-07T04:41:56;5.50;99.90
28524;DHT22;15734;50.904;6.922;2022-12-07T04:44:22;5.50;99.90
28524;DHT22;15734;50.904;6.922;2022-12-07T04:46:48;5.40;99.90
28524;DHT22;15734;50.904;6.922;2022-12-07T04:49:13;5.40;99.90
28524;DHT22;15734;50.904;6.922;2022-12-07T04:51:39;5.40;99.90
28524;DHT22;15734;50.904;6.922;2022-12-07T04:54:05;5.40;99.90
28524;DHT22;15734;50.904;6.922;2022-12-07T04:56:30;5.30;99.90
28524;DHT22;15734;50.904;6.922;2022-12-07T04:58:56;5.30;99.90
28524;DHT22;15734;50.904;6.922;2022-12-07T05:01:21;5.30;99.90
28524;DHT22;15734;50.904;6.922;2022-12-07T05:03:47;5.30;99.90
28524;DHT22;15734;50.904;6.922;2022-12-07T05:06:13;5.30;99.90
28524;DHT22;15734;50.904;6.922;2022-12-07T05:08:39;5.30;99.90
28524;DHT22;15734;50.904;6.922;2022-12-07T05:11:05;5.30;99.90
28524;DHT22;15734;50.904;6.922;2022-12-07T05:13:31;5.30;99.90
28524;DHT22;15734;50.904;6.922;2022-12-07T05:15:56;5.40;99.90
28524;DHT22;15734;50.904;6.922;2022-12-07T05:18:22;5.40;99.90
28524;DHT22;15734;50.904;6.922;2022-12-07T05:20:47;5.40;99.90
28524;DHT22;15734;50.904;6.922;2022-12-07T05:23:13;5.30;99.90
28524;DHT22;15734;50.904;6.922;2022-12-07T05:25:38;5.30;99.90
28524;DHT22;15734;50.904;6.922;2022-12-07T05:28:04;5.30;99.90
28524;DHT22;15734;50.904;6.922;2022-12-07T05:30:30;5.30;99.90
28524;DHT22;15734;50.904;6.922;2022-12-07T05:32:55;5.30;99.90
28524;DHT22;15734;50.904;6.922;2022-12-07T05:35:21;5.30;99.90
28524;DHT22;15734;50.904;6.922;2022-12-07T05:37:46;5.30;99.90
28524;DHT22;15734;50.904;6.922;2022-12-07T05:40:12;5.30;99.90
28524;DHT22;15734;50.904;6.922;2022-12-07T05:42:38;5.30;99.90
28524;DHT22;15734;50.904;6.922;2022-12-07T05:45:04;5.40;99.90
28524;DHT22;15734;50.904;6.922;2022-12-07T05:47:29;5.40;99.90
28524;DHT22;15734;50.904;6.922;2022-12-07T05:49:55;5.40;99.90
28524;DHT22;15734;50.904;6.922;2022-12-07T05:52:20;5.40;99.90
28524;DHT22;15734;50.904;6.922;2022-12-07T05:54:46;5.40;99.90
28524;DHT22;15734;50.904;6.922;2022-12-07T05:57:11;5.40;99.90
28524;DHT22;15734;50.904;6.922;2022-12-07T05:59:37;5.40;99.90
28524;DHT22;15734;50.904;6.922;2022-12-07T06:02:03;5.40;99.90
28524;DHT22;15734;50.904;6.922;2022-12-07T06:04:30;5.40;99.90
28524;DHT22;15734;50.904;6.922;2022-12-07T06:06:56;5.30;99.90
28524;DHT22;15734;50.904;6.922;2022-12-07T06:09:24;5.30;99.90
28524;DHT22;15734;50.904;6.922;2022-12-07T06:11:50;5.30;99.90
28524;DHT22;15734;50.904;6.922;2022-12-07T06:14:34;5.20;99.90
28524;DHT22;15734;50.904;6.922;2022-12-07T06:16:59;5.20;99.90
28524;DHT22;15734;50.904;6.922;2022-12-07T06:19:25;5.20;99.90
28524;DHT22;15734;50.904;6.922;2022-12-07T06:21:51;5.20;99.90
28524;DHT22;15734;50.904;6.922;2022-12-07T06:24:16;5.10;99.90
28524;DHT22;15734;50.904;6.922;2022-12-07T06:26:42;5.00;99.90
28524;DHT22;15734;50.904;6.922;2022-12-07T06:29:08;5.00;99.90
28524;DHT22;15734;50.904;6.922;2022-12-07T06:31:34;5.00;99.90
28524;DHT22;15734;50.904;6.922;2022-12-07T06:34:00;5.00;99.90
28524;DHT22;15734;50.904;6.922;2022-12-07T06:36:26;5.00;99.90
28524;DHT22;15734;50.904;6.922;2022-12-07T06:38:52;5.00;99.90
28524;DHT22;15734;50.904;6.922;2022-12-07T06:41:18;5.00;99.90
28524;DHT22;15734;50.904;6.922;2022-12-07T06:43:43;5.00;99.90
28524;DHT22;15734;50.904;6.922;2022-12-07T06:46:09;5.00;99.90
28524;DHT22;15734;50.904;6.922;2022-12-07T06:48:34;5.00;99.90
28524;DHT22;15734;50.904;6.922;2022-12-07T06:50:59;5.00;99.90
28524;DHT22;15734;50.904;6.922;2022-12-07T06:53:25;5.00;99.90
28524;DHT22;15734;50.904;6.922;2022-12-07T06:55:50;4.90;99.90
28524;DHT22;15734;50.904;6.922;2022-12-07T06:58:16;4.90;99.90
28524;DHT22;15734;50.904;6.922;2022-12-07T07:00:42;5.00;99.90
28524;DHT22;15734;50.904;6.922;2022-12-07T07:03:08;5.00;99.90
28524;DHT22;15734;50.904;6.922;2022-12-07T07:05:33;5.10;99.90
28524;DHT22;15734;50.904;6.922;2022-12-07T07:07:58;5.00;99.90
28524;DHT22;15734;50.904;6.922;2022-12-07T07:10:24;5.10;99.90
28524;DHT22;15734;50.904;6.922;2022-12-07T07:12:49;5.10;99.90
28524;DHT22;15734;50.904;6.922;2022-12-07T07:15:15;5.10;99.90
28524;DHT22;15734;50.904;6.922;2022-12-07T07:17:40;5.10;99.90
28524;DHT22;15734;50.904;6.922;2022-12-07T07:20:06;5.10;99.90
28524;DHT22;15734;50.904;6.922;2022-12-07T07:22:31;5.10;99.90
28524;DHT22;15734;50.904;6.922;2022-12-07T07:24:57;5.10;99.90
28524;DHT22;15734;50.904;6.922;2022-12-07T07:27:22;5.10;99.90
28524;DHT22;15734;50.904;6.922;2022-12-07T07:29:48;5.10;99.90
28524;DHT22;15734;50.904;6.922;2022-12-07T07:32:13;5.20;99.90
28524;DHT22;15734;50.904;6.922;2022-12-07T07:34:39;5.20;99.90
28524;DHT22;15734;50.904;6.922;2022-12-07T07:37:05;5.10;99.90
28524;DHT22;15734;50.904;6.922;2022-12-07T07:39:30;5.10;99.90
28524;DHT22;15734;50.904;6.922;2022-12-07T07:41:56;5.10;99.90
28524;DHT22;15734;50.904;6.922;2022-12-07T07:44:21;5.10;99.90
28524;DHT22;15734;50.904;6.922;2022-12-07T07:46:47;5.10;99.90
28524;DHT22;15734;50.904;6.922;2022-12-07T07:49:12;5.00;99.90
28524;DHT22;15734;50.904;6.922;2022-12-07T07:51:38;5.00;99.90
28524;DHT22;15734;50.904;6.922;2022-12-07T07:54:03;5.00;99.90
28524;DHT22;15734;50.904;6.922;2022-12-07T07:56:29;5.00;99.90
28524;DHT22;15734;50.904;6.922;2022-12-07T07:58:54;5.00;99.90
28524;DHT22;15734;50.904;6.922;2022-12-07T08:01:20;5.10;99.90
28524;DHT22;15734;50.904;6.922;2022-12-07T08:03:46;5.10;99.90
28524;DHT22;15734;50.904;6.922;2022-12-07T08:06:11;5.10;99.90
28524;DHT22;15734;50.904;6.922;2022-12-07T08:08:37;5.10;99.90
28524;DHT22;15734;50.904;6.922;2022-12-07T08:11:06;5.10;99.90
28524;DHT22;15734;50.904;6.922;2022-12-07T08:13:31;5.10;99.90
28524;DHT22;15734;50.904;6.922;2022-12-07T08:15:57;5.20;99.90
28524;DHT22;15734;50.904;6.922;2022-12-07T08:18:22;5.20;99.90
28524;DHT22;15734;50.904;6.922;2022-12-07T08:20:48;5.20;99.90
28524;DHT22;15734;50.904;6.922;2022-12-07T08:23:13;5.20;99.90
28524;DHT22;15734;50.904;6.922;2022-12-07T08:25:39;5.30;99.90
28524;DHT22;15734;50.904;6.922;2022-12-07T08:28:05;5.20;99.90
28524;DHT22;15734;50.904;6.922;2022-12-07T08:30:31;5.30;99.90
28524;DHT22;15734;50.904;6.922;2022-12-07T08:32:56;5.30;99.90
28524;DHT22;15734;50.904;6.922;2022-12-07T08:35:21;5.30;99.90
28524;DHT22;15734;50.904;6.922;2022-12-07T08:37:47;5.30;99.90
28524;DHT22;15734;50.904;6.922;2022-12-07T08:40:13;5.40;99.90
28524;DHT22;15734;50.904;6.922;2022-12-07T08:42:41;5.40;99.90
28524;DHT22;15734;50.904;6.922;2022-12-07T08:45:08;5.40;99.90
28524;DHT22;15734;50.904;6.922;2022-12-07T08:47:34;5.40;99.90
28524;DHT22;15734;50.904;6.922;2022-12-07T08:50:01;5.40;99.90
28524;DHT22;15734;50.904;6.922;2022-12-07T08:52:29;5.40;99.90
28524;DHT22;15734;50.904;6.922;2022-12-07T08:54:55;5.50;99.90
28524;DHT22;15734;50.904;6.922;2022-12-07T08:57:20;5.50;99.90
28524;DHT22;15734;50.904;6.922;2022-12-07T08:59:46;5.50;99.90
28524;DHT22;15734;50.904;6.922;2022-12-07T09:02:11;5.50;99.90
28524;DHT22;15734;50.904;6.922;2022-12-07T09:04:37;5.50;99.90
28524;DHT22;15734;50.904;6.922;2022-12-07T09:07:02;5.60;99.90
28524;DHT22;15734;50.904;6.922;2022-12-07T09:09:29;5.50;99.90
28524;DHT22;15734;50.904;6.922;2022-12-07T09:11:54;5.50;99.90
28524;DHT22;15734;50.904;6.922;2022-12-07T09:14:20;5.60;99.90
28524;DHT22;15734;50.904;6.922;2022-12-07T09:16:45;5.60;99.90
28524;DHT22;15734;50.904;6.922;2022-12-07T09:19:11;5.70;99.90
28524;DHT22;15734;50.904;6.922;2022-12-07T09:21:36;5.70;99.90
28524;DHT22;15734;50.904;6.922;2022-12-07T09:24:02;5.80;99.90
28524;DHT22;15734;50.904;6.922;2022-12-07T09:26:27;5.90;99.90
28524;DHT22;15734;50.904;6.922;2022-12-07T09:28:53;5.90;99.90
28524;DHT22;15734;50.904;6.922;2022-12-07T09:31:18;6.00;99.90
28524;DHT22;15734;50.904;6.922;2022-12-07T09:33:43;6.00;99.90
28524;DHT22;15734;50.904;6.922;2022-12-07T09:36:09;6.00;99.90
28524;DHT22;15734;50.904;6.922;2022-12-07T09:38:35;6.00;99.90
28524;DHT22;15734;50.904;6.922;2022-12-07T09:41:06;6.00;99.90
28524;DHT22;15734;50.904;6.922;2022-12-07T09:43:33;5.90;99.90
28524;DHT22;15734;50.904;6.922;2022-12-07T09:45:59;5.90;99.90
28524;DHT22;15734;50.904;6.922;2022-12-07T09:50:50;6.00;99.90
28524;DHT22;15734;50.904;6.922;2022-12-07T09:53:50;6.00;99.90
28524;DHT22;15734;50.904;6.922;2022-12-07T09:56:10;6.00;99.90
28524;DHT22;15734;50.904;6.922;2022-12-07T09:58:37;6.00;99.90
28524;DHT22;15734;50.904;6.922;2022-12-07T10:01:11;6.00;99.90
28524;DHT22;15734;50.904;6.922;2022-12-07T10:03:38;6.00;99.90
28524;DHT22;15734;50.904;6.922;2022-12-07T10:06:04;6.10;99.90
28524;DHT22;15734;50.904;6.922;2022-12-07T10:08:30;6.10;99.90
28524;DHT22;15734;50.904;6.922;2022-12-07T10:10:56;6.10;99.90
28524;DHT22;15734;50.904;6.922;2022-12-07T10:13:23;6.20;99.90
28524;DHT22;15734;50.904;6.922;2022-12-07T10:15:58;6.20;99.90
28524;DHT22;15734;50.904;6.922;2022-12-07T10:18:28;6.20;99.90
28524;DHT22;15734;50.904;6.922;2022-12-07T10:21:01;6.30;99.90
28524;DHT22;15734;50.904;6.922;2022-12-07T10:23:28;6.30;99.90
28524;DHT22;15734;50.904;6.922;2022-12-07T10:25:53;6.30;99.90
28524;DHT22;15734;50.904;6.922;2022-12-07T10:28:20;6.30;99.90
28524;DHT22;15734;50.904;6.922;2022-12-07T10:33:27;6.40;99.90
28524;DHT22;15734;50.904;6.922;2022-12-07T10:35:53;6.40;99.90
28524;DHT22;15734;50.904;6.922;2022-12-07T10:38:18;6.40;99.90
28524;DHT22;15734;50.904;6.922;2022-12-07T10:40:44;6.40;99.90
28524;DHT22;15734;50.904;6.922;2022-12-07T10:43:15;6.40;99.90
28524;DHT22;15734;50.904;6.922;2022-12-07T10:54:08;6.40;99.90
28524;DHT22;15734;50.904;6.922;2022-12-07T10:56:45;6.50;99.90
28524;DHT22;15734;50.904;6.922;2022-12-07T10:59:23;6.60;99.90
28524;DHT22;15734;50.904;6.922;2022-12-07T11:09:42;6.60;99.90
28524;DHT22;15734;50.904;6.922;2022-12-07T11:12:21;6.70;99.90
28524;DHT22;15734;50.904;6.922;2022-12-07T11:14:55;6.60;99.90
28524;DHT22;15734;50.904;6.922;2022-12-07T11:17:26;6.70;99.90
28524;DHT22;15734;50.904;6.922;2022-12-07T11:23:27;6.80;99.90
28524;DHT22;15734;50.904;6.922;2022-12-07T11:30:42;6.80;99.90
28524;DHT22;15734;50.904;6.922;2022-12-07T11:33:15;6.80;99.90
28524;DHT22;15734;50.904;6.922;2022-12-07T11:38:31;6.90;99.90
28524;DHT22;15734;50.904;6.922;2022-12-07T11:41:01;6.80;99.90
28524;DHT22;15734;50.904;6.922;2022-12-07T11:43:40;6.80;99.90
28524;DHT22;15734;50.904;6.922;2022-12-07T11:46:11;6.70;99.90
28524;DHT22;15734;50.904;6.922;2022-12-07T11:48:38;6.70;99.90
28524;DHT22;15734;50.904;6.922;2022-12-07T11:51:06;6.80;99.90
28524;DHT22;15734;50.904;6.922;2022-12-07T11:56:03;6.70;99.90
28524;DHT22;15734;50.904;6.922;2022-12-07T12:03:48;6.70;99.90
28524;DHT22;15734;50.904;6.922;2022-12-07T12:06:14;6.70;99.90
28524;DHT22;15734;50.904;6.922;2022-12-07T12:08:42;6.60;99.90
28524;DHT22;15734;50.904;6.922;2022-12-07T12:16:51;6.60;99.90
28524;DHT22;15734;50.904;6.922;2022-12-07T12:21:49;6.60;99.90
28524;DHT22;15734;50.904;6.922;2022-12-07T12:24:19;6.60;99.90
28524;DHT22;15734;50.904;6.922;2022-12-07T12:26:51;6.70;99.90
28524;DHT22;15734;50.904;6.922;2022-12-07T12:29:28;6.70;99.90
28524;DHT22;15734;50.904;6.922;2022-12-07T12:42:43;6.70;99.90
28524;DHT22;15734;50.904;6.922;2022-12-07T12:47:51;6.70;99.90
28524;DHT22;15734;50.904;6.922;2022-12-07T12:57:35;6.60;99.90
28524;DHT22;15734;50.904;6.922;2022-12-07T13:00:02;6.60;99.90
28524;DHT22;15734;50.904;6.922;2022-12-07T13:02:55;6.50;99.90
28524;DHT22;15734;50.904;6.922;2022-12-07T13:05:25;6.50;99.90
28524;DHT22;15734;50.904;6.922;2022-12-07T13:07:54;6.50;99.90
28524;DHT22;15734;50.904;6.922;2022-12-07T13:10:20;6.50;99.90
28524;DHT22;15734;50.904;6.922;2022-12-07T13:18:00;6.50;99.90
28524;DHT22;15734;50.904;6.922;2022-12-07T13:20:46;6.40;99.90
28524;DHT22;15734;50.904;6.922;2022-12-07T13:23:12;6.40;99.90
28524;DHT22;15734;50.904;6.922;2022-12-07T13:25:55;6.50;99.90
28524;DHT22;15734;50.904;6.922;2022-12-07T13:28:22;6.50;99.90
28524;DHT22;15734;50.904;6.922;2022-12-07T13:30:57;6.50;99.90
28524;DHT22;15734;50.904;6.922;2022-12-07T13:33:24;6.50;99.90
28524;DHT22;15734;50.904;6.922;2022-12-07T13:35:55;6.50;99.90
28524;DHT22;15734;50.904;6.922;2022-12-07T13:38:34;6.50;99.90
28524;DHT22;15734;50.904;6.922;2022-12-07T13:43:30;6.60;99.90
28524;DHT22;15734;50.904;6.922;2022-12-07T13:45:56;6.60;99.90
28524;DHT22;15734;50.904;6.922;2022-12-07T13:48:33;6.60;99.90
28524;DHT22;15734;50.904;6.922;2022-12-07T13:51:01;6.60;99.90
28524;DHT22;15734;50.904;6.922;2022-12-07T13:53:26;6.60;99.90
28524;DHT22;15734;50.904;6.922;2022-12-07T13:55:56;6.70;99.90
28524;DHT22;15734;50.904;6.922;2022-12-07T13:58:22;6.70;99.90
28524;DHT22;15734;50.904;6.922;2022-12-07T14:00:48;6.60;99.90
28524;DHT22;15734;50.904;6.922;2022-12-07T14:05:39;6.60;99.90
28524;DHT22;15734;50.904;6.922;2022-12-07T14:10:38;6.60;99.90
28524;DHT22;15734;50.904;6.922;2022-12-07T14:15:45;6.50;99.90
28524;DHT22;15734;50.904;6.922;2022-12-07T14:18:25;6.50;99.90
28524;DHT22;15734;50.904;6.922;2022-12-07T14:20:52;6.50;99.90
28524;DHT22;15734;50.904;6.922;2022-12-07T14:23:27;6.50;99.90
28524;DHT22;15734;50.904;6.922;2022-12-07T14:25:53;6.50;99.90
28524;DHT22;15734;50.904;6.922;2022-12-07T14:28:33;6.40;99.90
28524;DHT22;15734;50.904;6.922;2022-12-07T14:30:59;6.40;99.90
28524;DHT22;15734;50.904;6.922;2022-12-07T14:33:25;6.40;99.90
28524;DHT22;15734;50.904;6.922;2022-12-07T14:35:51;6.40;99.90
28524;DHT22;15734;50.904;6.922;2022-12-07T14:38:21;6.40;99.90
28524;DHT22;15734;50.904;6.922;2022-12-07T14:40:47;6.40;99.90
28524;DHT22;15734;50.904;6.922;2022-12-07T14:43:13;6.40;99.90
28524;DHT22;15734;50.904;6.922;2022-12-07T14:45:39;6.40;99.90
28524;DHT22;15734;50.904;6.922;2022-12-07T14:48:05;6.40;99.90
28524;DHT22;15734;50.904;6.922;2022-12-07T14:50:32;6.30;99.90
28524;DHT22;15734;50.904;6.922;2022-12-07T14:53:05;6.30;99.90
28524;DHT22;15734;50.904;6.922;2022-12-07T14:55:34;6.30;99.90
28524;DHT22;15734;50.904;6.922;2022-12-07T14:58:00;6.20;99.90
28524;DHT22;15734;50.904;6.922;2022-12-07T15:00:26;6.30;99.90
28524;DHT22;15734;50.904;6.922;2022-12-07T15:02:52;6.20;99.90
28524;DHT22;15734;50.904;6.922;2022-12-07T15:05:18;6.20;99.90
28524;DHT22;15734;50.904;6.922;2022-12-07T15:07:44;6.20;99.90
28524;DHT22;15734;50.904;6.922;2022-12-07T15:10:17;6.20;99.90
28524;DHT22;15734;50.904;6.922;2022-12-07T15:12:43;6.20;99.90
28524;DHT22;15734;50.904;6.922;2022-12-07T15:15:09;6.20;99.90
28524;DHT22;15734;50.904;6.922;2022-12-07T15:17:34;6.20;99.90
28524;DHT22;15734;50.904;6.922;2022-12-07T15:20:00;6.20;99.90
28524;DHT22;15734;50.904;6.922;2022-12-07T15:22:25;6.10;99.90
28524;DHT22;15734;50.904;6.922;2022-12-07T15:24:51;6.10;99.90
28524;DHT22;15734;50.904;6.922;2022-12-07T15:27:16;6.10;99.90
28524;DHT22;15734;50.904;6.922;2022-12-07T15:29:42;6.10;99.90
28524;DHT22;15734;50.904;6.922;2022-12-07T15:32:07;6.10;99.90
28524;DHT22;15734;50.904;6.922;2022-12-07T15:34:33;6.10;99.90
28524;DHT22;15734;50.904;6.922;2022-12-07T15:36:59;6.10;99.90
28524;DHT22;15734;50.904;6.922;2022-12-07T15:39:24;6.10;99.90
28524;DHT22;15734;50.904;6.922;2022-12-07T15:41:50;6.10;99.90
28524;DHT22;15734;50.904;6.922;2022-12-07T15:44:15;6.10;99.90
28524;DHT22;15734;50.904;6.922;2022-12-07T15:47:00;6.10;99.90
28524;DHT22;15734;50.904;6.922;2022-12-07T15:49:25;6.10;99.90
28524;DHT22;15734;50.904;6.922;2022-12-07T15:51:51;6.00;99.90
28524;DHT22;15734;50.904;6.922;2022-12-07T15:54:20;5.90;99.90
28524;DHT22;15734;50.904;6.922;2022-12-07T15:59:49;6.00;99.90
28524;DHT22;15734;50.904;6.922;2022-12-07T16:02:14;5.90;99.90
28524;DHT22;15734;50.904;6.922;2022-12-07T16:04:40;5.90;99.90
28524;DHT22;15734;50.904;6.922;2022-12-07T16:07:05;5.80;99.90
28524;DHT22;15734;50.904;6.922;2022-12-07T16:09:31;5.80;99.90
28524;DHT22;15734;50.904;6.922;2022-12-07T16:11:56;5.70;99.90
28524;DHT22;15734;50.904;6.922;2022-12-07T16:14:22;5.70;99.90
28524;DHT22;15734;50.904;6.922;2022-12-07T16:16:48;5.60;99.90
28524;DHT22;15734;50.904;6.922;2022-12-07T16:19:13;5.60;99.90
28524;DHT22;15734;50.904;6.922;2022-12-07T16:21:39;5.50;99.90
28524;DHT22;15734;50.904;6.922;2022-12-07T16:24:05;5.60;99.90
28524;DHT22;15734;50.904;6.922;2022-12-07T16:26:31;5.60;99.90
28524;DHT22;15734;50.904;6.922;2022-12-07T16:28:56;5.60;99.90
28524;DHT22;15734;50.904;6.922;2022-12-07T16:31:23;5.60;99.90
28524;DHT22;15734;50.904;6.922;2022-12-07T16:33:50;5.60;99.90
28524;DHT22;15734;50.904;6.922;2022-12-07T16:36:16;5.50;99.90
28524;DHT22;15734;50.904;6.922;2022-12-07T16:38:42;5.50;99.90
28524;DHT22;15734;50.904;6.922;2022-12-07T16:41:07;5.50;99.90
28524;DHT22;15734;50.904;6.922;2022-12-07T16:43:33;5.50;99.90
28524;DHT22;15734;50.904;6.922;2022-12-07T16:45:58;5.40;99.90
28524;DHT22;15734;50.904;6.922;2022-12-07T16:48:24;5.40;99.90
28524;DHT22;15734;50.904;6.922;2022-12-07T16:50:49;5.40;99.90
28524;DHT22;15734;50.904;6.922;2022-12-07T16:53:15;5.40;99.90
28524;DHT22;15734;50.904;6.922;2022-12-07T16:55:42;5.40;99.90
28524;DHT22;15734;50.904;6.922;2022-12-07T16:58:08;5.40;99.90
28524;DHT22;15734;50.904;6.922;2022-12-07T17:00:33;5.40;99.90
28524;DHT22;15734;50.904;6.922;2022-12-07T17:02:59;5.40;99.90
28524;DHT22;15734;50.904;6.922;2022-12-07T17:05:25;5.40;99.90
28524;DHT22;15734;50.904;6.922;2022-12-07T17:07:52;5.40;99.90
28524;DHT22;15734;50.904;6.922;2022-12-07T17:10:17;5.40;99.90
28524;DHT22;15734;50.904;6.922;2022-12-07T17:12:43;5.30;99.90
28524;DHT22;15734;50.904;6.922;2022-12-07T17:15:09;5.30;99.90
28524;DHT22;15734;50.904;6.922;2022-12-07T17:17:44;5.30;99.90
28524;DHT22;15734;50.904;6.922;2022-12-07T17:20:10;5.30;99.90
28524;DHT22;15734;50.904;6.922;2022-12-07T17:22:36;5.20;99.90
28524;DHT22;15734;50.904;6.922;2022-12-07T17:25:02;5.20;99.90
28524;DHT22;15734;50.904;6.922;2022-12-07T17:27:28;5.20;99.90
28524;DHT22;15734;50.904;6.922;2022-12-07T17:29:54;5.20;99.90
28524;DHT22;15734;50.904;6.922;2022-12-07T17:32:19;5.30;99.90
28524;DHT22;15734;50.904;6.922;2022-12-07T17:34:44;5.20;99.90
28524;DHT22;15734;50.904;6.922;2022-12-07T17:37:10;5.20;99.90
28524;DHT22;15734;50.904;6.922;2022-12-07T17:39:35;5.30;99.90